createdAt,value
2023-03-06T00:00:56.966Z,5.20
2023-03-06T00:03:28.129Z,4.80
2023-03-06T00:05:59.129Z,4.80
2023-03-06T00:08:29.217Z,4.40
2023-03-06T00:10:57.838Z,5.20
2023-03-06T00:13:31.476Z,4.60
2023-03-06T00:16:03.355Z,5.30
2023-03-06T00:18:31.873Z,5.00
2023-03-06T00:21:01.045Z,5.00
2023-03-06T00:23:29.556Z,3.50
2023-03-06T00:25:58.034Z,4.20
2023-03-06T00:28:26.530Z,4.50
2023-03-06T00:30:55.027Z,5.30
2023-03-06T00:33:23.535Z,5.60
2023-03-06T00:35:52.087Z,5.00
2023-03-06T00:38:20.649Z,5.20
2023-03-06T00:40:49.077Z,5.10
2023-03-06T00:43:17.514Z,5.60
2023-03-06T00:45:46.049Z,7.10
2023-03-06T00:48:14.542Z,7.70
2023-03-06T00:50:43.043Z,7.40
2023-03-06T00:53:13.426Z,7.20
2023-03-06T00:55:45.856Z,7.90
2023-03-06T00:58:14.341Z,7.90
2023-03-06T01:00:43.277Z,7.60
2023-03-06T01:03:12.333Z,7.70
2023-03-06T01:05:40.921Z,7.90
2023-03-06T01:08:09.331Z,9.30
2023-03-06T01:10:40.852Z,4.00
2023-03-06T01:13:11.000Z,7.10
2023-03-06T01:15:39.542Z,4.80
2023-03-06T01:18:08.044Z,2.90
2023-03-06T01:20:38.403Z,4.10
2023-03-06T01:23:06.897Z,5.40
2023-03-06T01:25:36.078Z,3.80
2023-03-06T01:28:04.713Z,3.10
2023-03-06T01:30:33.181Z,4.00
2023-03-06T01:33:02.929Z,3.00
2023-03-06T01:35:31.487Z,5.10
2023-03-06T01:37:59.983Z,5.00
2023-03-06T01:40:31.817Z,4.00
2023-03-06T01:43:10.192Z,5.70
2023-03-06T01:45:38.632Z,5.30
2023-03-06T01:48:07.111Z,5.50
2023-03-06T01:50:35.637Z,5.00
2023-03-06T01:53:06.477Z,5.90
2023-03-06T01:55:36.931Z,6.40
2023-03-06T01:58:09.244Z,5.50
2023-03-06T02:00:38.496Z,6.00
2023-03-06T02:03:11.850Z,6.70
2023-03-06T02:05:42.272Z,6.30
2023-03-06T02:08:13.911Z,5.60
2023-03-06T02:11:11.412Z,5.10
2023-03-06T02:13:42.151Z,6.50
2023-03-06T02:16:12.639Z,5.90
2023-03-06T02:18:42.996Z,7.90
2023-03-06T02:21:20.477Z,8.60
2023-03-06T02:23:58.068Z,7.30
2023-03-06T02:26:28.926Z,7.40
2023-03-06T02:28:59.383Z,7.30
2023-03-06T02:31:32.937Z,7.00
2023-03-06T02:34:04.340Z,6.60
2023-03-06T02:36:38.849Z,6.40
2023-03-06T02:39:07.276Z,4.70
2023-03-06T02:41:37.048Z,5.50
2023-03-06T02:44:05.842Z,6.20
2023-03-06T02:46:34.263Z,7.90
2023-03-06T02:49:02.685Z,4.70
2023-03-06T02:51:31.041Z,4.70
2023-03-06T02:53:59.380Z,4.80
2023-03-06T02:56:28.253Z,5.00
2023-03-06T02:58:56.619Z,4.10
2023-03-06T03:01:26.091Z,4.90
2023-03-06T03:03:54.445Z,5.80
2023-03-06T03:06:22.822Z,4.90
2023-03-06T03:08:51.482Z,5.00
2023-03-06T03:11:19.871Z,5.40
2023-03-06T03:13:48.631Z,7.00
2023-03-06T03:16:21.471Z,5.70
2023-03-06T03:18:51.319Z,5.70
2023-03-06T03:21:21.104Z,5.60
2023-03-06T03:23:49.845Z,6.60
2023-03-06T03:26:21.827Z,5.80
2023-03-06T03:29:01.273Z,5.40
2023-03-06T03:31:29.716Z,10.20
2023-03-06T03:33:58.388Z,8.70
2023-03-06T03:36:27.722Z,15.00
2023-03-06T03:38:57.945Z,8.80
2023-03-06T03:41:26.870Z,5.10
2023-03-06T03:43:55.162Z,5.40
2023-03-06T03:46:24.269Z,5.30
2023-03-06T03:48:53.883Z,5.50
2023-03-06T03:51:23.115Z,7.00
2023-03-06T03:53:53.873Z,5.70
2023-03-06T03:56:24.410Z,5.70
2023-03-06T03:58:58.657Z,5.10
2023-03-06T04:01:28.429Z,7.10
2023-03-06T04:03:56.859Z,6.20
2023-03-06T04:06:25.353Z,5.90
2023-03-06T04:08:54.080Z,4.70
2023-03-06T04:11:23.104Z,5.70
2023-03-06T04:13:52.267Z,6.20
2023-03-06T04:16:20.777Z,6.60
2023-03-06T04:18:50.867Z,7.30
2023-03-06T04:21:19.269Z,5.80
2023-03-06T04:23:47.588Z,5.90
2023-03-06T04:26:16.321Z,7.40
2023-03-06T04:28:44.850Z,8.40
2023-03-06T04:31:14.142Z,9.10
2023-03-06T04:33:42.442Z,9.40
2023-03-06T04:36:35.055Z,10.10
2023-03-06T04:39:07.262Z,8.00
2023-03-06T04:41:36.175Z,9.30
2023-03-06T04:44:04.869Z,9.40
2023-03-06T04:46:33.754Z,10.70
2023-03-06T04:49:02.472Z,9.80
2023-03-06T04:51:31.827Z,9.80
2023-03-06T04:54:00.230Z,10.80
2023-03-06T04:56:28.572Z,10.60
2023-03-06T04:58:57.465Z,7.50
2023-03-06T05:01:25.919Z,8.00
2023-03-06T05:03:54.285Z,9.40
2023-03-06T05:06:22.699Z,10.00
2023-03-06T05:08:51.080Z,9.00
2023-03-06T05:11:19.600Z,9.80
2023-03-06T05:13:48.049Z,8.10
2023-03-06T05:16:16.487Z,10.60
2023-03-06T05:18:44.913Z,10.00
2023-03-06T05:21:13.590Z,10.90
2023-03-06T05:23:42.004Z,10.10
2023-03-06T05:26:13.686Z,10.50
2023-03-06T05:28:42.165Z,10.20
2023-03-06T05:31:10.595Z,10.30
2023-03-06T05:33:38.886Z,10.80
2023-03-06T05:36:09.132Z,10.70
2023-03-06T05:38:37.537Z,6.70
2023-03-06T05:41:05.955Z,9.30
2023-03-06T05:43:34.417Z,9.40
2023-03-06T05:46:05.574Z,9.90
2023-03-06T05:48:36.362Z,7.80
2023-03-06T05:51:08.112Z,9.40
2023-03-06T05:53:36.758Z,9.00
2023-03-06T05:56:11.595Z,11.10
2023-03-06T05:58:40.393Z,8.60
2023-03-06T06:01:13.763Z,8.90
2023-03-06T06:03:42.232Z,8.60
2023-03-06T06:06:12.824Z,9.10
2023-03-06T06:08:42.036Z,9.50
2023-03-06T06:11:13.019Z,10.50
2023-03-06T06:13:42.392Z,11.50
2023-03-06T06:16:17.565Z,11.50
2023-03-06T06:18:46.456Z,12.20
2023-03-06T06:21:15.120Z,12.50
2023-03-06T06:23:43.569Z,11.40
2023-03-06T06:26:11.937Z,12.00
2023-03-06T06:28:40.322Z,10.80
2023-03-06T06:31:13.362Z,5.70
2023-03-06T06:36:20.794Z,11.00
2023-03-06T06:38:50.566Z,13.50
2023-03-06T06:41:53.055Z,11.60
2023-03-06T06:44:11.424Z,12.50
2023-03-06T06:49:28.278Z,14.90
2023-03-06T06:51:56.640Z,12.80
2023-03-06T06:54:25.626Z,10.70
2023-03-06T06:56:54.189Z,11.10
2023-03-06T06:59:24.055Z,11.10
2023-03-06T07:01:53.270Z,11.30
2023-03-06T07:04:21.894Z,9.20
2023-03-06T07:06:50.333Z,11.10
2023-03-06T07:09:20.227Z,9.60
2023-03-06T07:11:48.699Z,10.00
2023-03-06T07:14:17.111Z,9.10
2023-03-06T07:16:45.472Z,9.00
2023-03-06T07:19:14.445Z,10.40
2023-03-06T07:21:42.815Z,16.00
2023-03-06T07:24:12.892Z,14.70
2023-03-06T07:26:41.343Z,14.00
2023-03-06T07:29:09.689Z,12.50
2023-03-06T07:31:38.102Z,12.90
2023-03-06T07:34:06.588Z,10.90
2023-03-06T07:36:38.465Z,10.10
2023-03-06T07:39:09.040Z,9.80
2023-03-06T07:41:37.395Z,11.50
2023-03-06T07:44:05.764Z,10.70
2023-03-06T07:46:34.321Z,11.30
2023-03-06T07:49:02.753Z,12.60
2023-03-06T07:51:32.448Z,11.90
2023-03-06T07:54:00.844Z,11.40
2023-03-06T07:56:30.869Z,12.70
2023-03-06T07:58:59.247Z,13.70
2023-03-06T08:01:28.449Z,12.00
2023-03-06T08:03:57.188Z,12.10
2023-03-06T08:06:27.459Z,10.80
2023-03-06T08:08:56.976Z,11.30
2023-03-06T08:11:28.358Z,12.10
2023-03-06T08:13:58.066Z,12.40
2023-03-06T08:16:29.741Z,12.10
2023-03-06T08:18:58.358Z,12.30
2023-03-06T08:21:28.332Z,11.70
2023-03-06T08:23:57.112Z,11.00
2023-03-06T08:26:32.225Z,12.10
2023-03-06T08:29:02.412Z,11.20
2023-03-06T08:31:34.393Z,11.00
2023-03-06T08:34:05.848Z,10.50
2023-03-06T08:36:35.000Z,10.30
2023-03-06T08:39:04.270Z,9.90
2023-03-06T08:41:33.353Z,10.20
2023-03-06T08:44:01.775Z,9.60
2023-03-06T08:46:31.019Z,8.90
2023-03-06T08:48:59.456Z,8.00
2023-03-06T08:51:29.684Z,8.40
2023-03-06T08:53:59.273Z,7.90
2023-03-06T08:56:30.343Z,7.70
2023-03-06T08:59:01.305Z,8.70
2023-03-06T09:01:33.435Z,8.30
2023-03-06T09:04:04.612Z,8.60
2023-03-06T09:06:37.389Z,7.40
2023-03-06T09:09:07.011Z,7.50
2023-03-06T09:11:36.338Z,7.40
2023-03-06T09:14:05.811Z,8.30
2023-03-06T09:16:34.269Z,7.10
2023-03-06T09:19:02.665Z,7.60
2023-03-06T09:21:31.619Z,8.50
2023-03-06T09:24:00.270Z,9.20
2023-03-06T09:26:43.323Z,6.60
2023-03-06T09:29:16.476Z,6.70
2023-03-06T09:31:45.974Z,6.60
2023-03-06T09:34:14.372Z,5.90
2023-03-06T09:36:55.903Z,6.80
2023-03-06T09:39:27.465Z,13.30
2023-03-06T09:41:57.943Z,6.90
2023-03-06T09:44:29.665Z,5.40
2023-03-06T09:47:31.135Z,5.20
2023-03-06T09:50:05.118Z,5.70
2023-03-06T09:52:36.530Z,6.50
2023-03-06T09:55:04.836Z,5.00
2023-03-06T09:57:43.442Z,4.40
2023-03-06T10:00:19.448Z,4.80
2023-03-06T10:02:51.089Z,5.10
2023-03-06T10:05:45.129Z,4.50
2023-03-06T10:08:22.608Z,4.20
2023-03-06T10:10:59.146Z,4.60
2023-03-06T10:13:45.603Z,4.20
2023-03-06T10:16:20.189Z,3.70
2023-03-06T10:18:48.518Z,4.40
2023-03-06T10:21:21.537Z,4.80
2023-03-06T10:24:25.374Z,2.70
2023-03-06T10:30:10.895Z,2.90
2023-03-06T10:32:52.076Z,4.10
2023-03-06T10:35:25.932Z,5.10
2023-03-06T10:38:18.693Z,5.10
2023-03-06T10:41:13.414Z,3.80
2023-03-06T10:44:07.025Z,3.20
2023-03-06T10:49:23.537Z,4.00
2023-03-06T10:51:58.195Z,4.50
2023-03-06T10:54:27.160Z,3.80
2023-03-06T10:56:55.693Z,4.90
2023-03-06T10:59:28.689Z,2.80
2023-03-06T11:02:30.728Z,4.40
2023-03-06T11:05:01.600Z,3.10
2023-03-06T11:07:34.902Z,4.00
2023-03-06T11:10:23.422Z,4.10
2023-03-06T11:13:01.649Z,4.30
2023-03-06T11:15:30.320Z,4.30
2023-03-06T11:18:24.395Z,3.30
2023-03-06T11:20:55.608Z,3.70
2023-03-06T11:23:42.892Z,4.20
2023-03-06T11:26:17.378Z,4.30
2023-03-06T11:28:57.646Z,4.50
2023-03-06T11:31:34.079Z,3.90
2023-03-06T11:34:09.665Z,3.50
2023-03-06T11:37:03.865Z,6.60
2023-03-06T11:39:53.542Z,5.70
2023-03-06T11:42:43.489Z,4.80
2023-03-06T11:45:43.016Z,3.90
2023-03-06T11:48:14.512Z,5.30
2023-03-06T11:50:46.383Z,5.10
2023-03-06T11:53:18.863Z,3.70
2023-03-06T11:56:05.734Z,4.20
2023-03-06T11:58:46.209Z,4.30
2023-03-06T12:01:33.432Z,4.30
2023-03-06T12:04:17.172Z,4.20
2023-03-06T12:07:16.706Z,5.10
2023-03-06T12:09:51.262Z,3.50
2023-03-06T12:12:25.875Z,4.60
2023-03-06T12:15:01.741Z,3.40
2023-03-06T12:17:58.069Z,5.00
2023-03-06T12:20:48.134Z,4.80
2023-03-06T12:23:42.412Z,4.40
2023-03-06T12:26:38.541Z,4.00
2023-03-06T12:29:28.855Z,3.30
2023-03-06T12:32:35.375Z,4.20
2023-03-06T12:35:43.554Z,3.30
2023-03-06T12:38:17.885Z,5.20
2023-03-06T12:40:55.303Z,4.30
2023-03-06T12:43:54.893Z,5.00
2023-03-06T12:46:26.331Z,4.90
2023-03-06T12:49:12.353Z,4.80
2023-03-06T12:51:41.911Z,5.50
2023-03-06T12:54:13.181Z,4.70
2023-03-06T12:56:43.525Z,5.20
2023-03-06T12:59:35.704Z,4.50
2023-03-06T13:02:07.045Z,5.90
2023-03-06T13:04:50.833Z,4.60
2023-03-06T13:07:42.217Z,5.20
2023-03-06T13:10:29.692Z,5.50
2023-03-06T13:13:32.241Z,5.80
2023-03-06T13:16:03.783Z,4.50
2023-03-06T13:18:38.833Z,6.00
2023-03-06T13:21:42.330Z,4.70
2023-03-06T13:24:24.309Z,4.70
2023-03-06T13:27:13.061Z,4.30
2023-03-06T13:29:50.239Z,4.90
2023-03-06T13:32:28.447Z,3.50
2023-03-06T13:34:56.941Z,5.20
2023-03-06T13:37:25.254Z,5.20
2023-03-06T13:39:57.060Z,4.30
2023-03-06T13:42:38.528Z,5.20
2023-03-06T13:45:08.419Z,5.40
2023-03-06T13:48:06.433Z,4.60
2023-03-06T13:50:40.412Z,5.30
2023-03-06T13:53:27.060Z,6.10
2023-03-06T13:56:01.455Z,5.30
2023-03-06T13:58:48.650Z,4.50
2023-03-06T14:01:22.910Z,5.00
2023-03-06T14:04:09.068Z,6.20
2023-03-06T14:06:42.531Z,5.20
2023-03-06T14:09:35.741Z,5.80
2023-03-06T14:12:17.991Z,5.70
2023-03-06T14:14:55.372Z,5.60
2023-03-06T14:17:33.345Z,5.40
2023-03-06T14:20:13.291Z,6.40
2023-03-06T14:22:41.700Z,6.50
2023-03-06T14:25:31.312Z,5.80
2023-03-06T14:28:09.137Z,4.70
2023-03-06T14:30:50.960Z,6.10
2023-03-06T14:33:37.529Z,6.10
2023-03-06T14:36:10.068Z,5.30
2023-03-06T14:38:46.627Z,7.10
2023-03-06T14:41:24.223Z,5.90
2023-03-06T14:43:53.052Z,5.50
2023-03-06T14:46:24.184Z,5.70
2023-03-06T14:48:59.565Z,6.20
2023-03-06T14:51:28.480Z,5.30
2023-03-06T14:54:02.242Z,6.40
2023-03-06T14:56:35.922Z,6.70
2023-03-06T14:59:09.088Z,6.40
2023-03-06T15:04:25.835Z,6.00
2023-03-06T15:06:56.578Z,11.30
2023-03-06T15:09:34.327Z,12.50
2023-03-06T15:12:07.356Z,6.90
2023-03-06T15:14:39.075Z,6.80
2023-03-06T15:17:28.840Z,8.40
2023-03-06T15:20:01.470Z,6.70
2023-03-06T15:22:31.572Z,6.40
2023-03-06T15:25:19.004Z,5.50
2023-03-06T15:28:02.436Z,6.20
2023-03-06T15:33:20.289Z,6.60
2023-03-06T15:36:18.615Z,6.50
2023-03-06T15:38:48.098Z,7.40
2023-03-06T15:41:37.992Z,6.10
2023-03-06T15:44:13.023Z,6.60
2023-03-06T15:46:42.352Z,6.50
2023-03-06T15:49:14.960Z,6.90
2023-03-06T15:51:43.530Z,6.30
2023-03-06T15:54:12.888Z,6.50
2023-03-06T15:56:46.212Z,6.70
2023-03-06T15:59:22.336Z,6.80
2023-03-06T16:01:50.854Z,7.90
2023-03-06T16:04:20.181Z,8.30
2023-03-06T16:06:48.973Z,9.00
2023-03-06T16:09:17.303Z,7.80
2023-03-06T16:11:45.865Z,7.90
2023-03-06T16:14:26.608Z,7.60
2023-03-06T16:16:55.155Z,9.20
2023-03-06T16:19:27.159Z,9.30
2023-03-06T16:21:57.270Z,9.90
2023-03-06T16:24:26.825Z,8.30
2023-03-06T16:26:59.741Z,8.80
2023-03-06T16:29:30.395Z,9.00
2023-03-06T16:32:02.047Z,7.80
2023-03-06T16:34:30.534Z,9.50
2023-03-06T16:36:58.877Z,8.80
2023-03-06T16:39:27.348Z,11.40
2023-03-06T16:41:55.828Z,9.20
2023-03-06T16:44:24.282Z,10.10
2023-03-06T16:46:52.760Z,9.60
2023-03-06T16:49:25.264Z,8.30
2023-03-06T16:51:54.274Z,10.70
2023-03-06T16:54:26.384Z,9.70
2023-03-06T16:56:54.906Z,9.00
2023-03-06T16:59:25.103Z,11.50
2023-03-06T17:01:53.604Z,9.60
2023-03-06T17:04:22.577Z,10.90
2023-03-06T17:06:52.957Z,10.70
2023-03-06T17:09:21.376Z,13.10
2023-03-06T17:11:49.841Z,15.20
2023-03-06T17:14:18.191Z,14.20
2023-03-06T17:16:46.887Z,16.70
2023-03-06T17:19:16.622Z,13.50
2023-03-06T17:21:45.008Z,15.10
2023-03-06T17:24:13.261Z,15.80
2023-03-06T17:26:41.661Z,15.50
2023-03-06T17:29:09.982Z,16.40
2023-03-06T17:31:38.356Z,16.20
2023-03-06T17:34:06.913Z,15.60
2023-03-06T17:36:35.281Z,14.60
2023-03-06T17:39:04.588Z,17.10
2023-03-06T17:41:34.342Z,16.90
2023-03-06T17:44:02.834Z,17.20
2023-03-06T17:46:34.974Z,17.70
2023-03-06T17:49:04.078Z,18.40
2023-03-06T17:51:32.410Z,21.00
2023-03-06T17:54:00.757Z,19.30
2023-03-06T17:56:29.167Z,20.30
2023-03-06T17:58:57.857Z,18.50
2023-03-06T18:01:28.618Z,18.50
2023-03-06T18:03:57.717Z,17.50
2023-03-06T18:06:27.888Z,17.70
2023-03-06T18:08:56.483Z,21.90
2023-03-06T18:11:25.198Z,24.50
2023-03-06T18:13:53.902Z,20.30
2023-03-06T18:16:24.293Z,18.40
2023-03-06T18:18:55.211Z,19.90
2023-03-06T18:21:25.253Z,21.10
2023-03-06T18:23:53.937Z,22.90
2023-03-06T18:26:27.741Z,20.70
2023-03-06T18:29:01.655Z,19.70
2023-03-06T18:31:34.426Z,17.30
2023-03-06T18:36:34.257Z,16.30
2023-03-06T18:39:04.072Z,15.60
2023-03-06T18:41:32.738Z,15.60
2023-03-06T18:44:01.477Z,15.80
2023-03-06T18:46:35.735Z,16.50
2023-03-06T18:49:04.911Z,18.80
2023-03-06T18:51:34.192Z,19.80
2023-03-06T18:54:04.525Z,18.40
2023-03-06T18:56:33.244Z,15.50
2023-03-06T18:59:06.669Z,15.10
2023-03-06T19:01:35.172Z,14.90
2023-03-06T19:04:04.991Z,13.80
2023-03-06T19:06:33.482Z,14.90
2023-03-06T19:09:03.406Z,15.20
2023-03-06T19:11:32.804Z,16.70
2023-03-06T19:14:01.496Z,15.20
2023-03-06T19:16:31.410Z,24.60
2023-03-06T19:18:59.807Z,18.00
2023-03-06T19:21:28.982Z,14.70
2023-03-06T19:23:59.092Z,16.00
2023-03-06T19:26:28.264Z,15.00
2023-03-06T19:28:56.679Z,17.00
2023-03-06T19:31:28.259Z,16.60
2023-03-06T19:33:57.335Z,16.40
2023-03-06T19:36:33.683Z,16.30
2023-03-06T19:39:05.065Z,14.70
2023-03-06T19:41:34.724Z,14.60
2023-03-06T19:44:05.241Z,16.00
2023-03-06T19:46:36.450Z,15.90
2023-03-06T19:49:12.260Z,15.70
2023-03-06T19:51:40.766Z,15.40
2023-03-06T19:54:12.341Z,35.20
2023-03-06T19:56:40.991Z,24.20
2023-03-06T19:59:09.420Z,23.00
2023-03-06T20:01:38.853Z,33.10
2023-03-06T20:04:07.400Z,19.60
2023-03-06T20:06:39.865Z,18.50
2023-03-06T20:09:09.557Z,20.20
2023-03-06T20:11:38.681Z,20.50
2023-03-06T20:14:08.926Z,20.00
2023-03-06T20:16:38.578Z,19.50
2023-03-06T20:19:07.026Z,20.60
2023-03-06T20:21:37.949Z,18.40
2023-03-06T20:24:08.884Z,18.60
2023-03-06T20:26:38.803Z,19.70
2023-03-06T20:29:07.675Z,20.50
2023-03-06T20:31:37.248Z,20.40
2023-03-06T20:34:05.591Z,19.30
2023-03-06T20:36:37.148Z,19.10
2023-03-06T20:39:14.445Z,20.40
2023-03-06T20:41:43.789Z,20.10
2023-03-06T20:44:18.397Z,24.40
2023-03-06T20:46:47.765Z,25.60
2023-03-06T20:49:16.228Z,23.80
2023-03-06T20:51:45.243Z,22.10
2023-03-06T20:54:15.461Z,24.70
2023-03-06T20:56:47.358Z,20.00
2023-03-06T20:59:16.134Z,19.90
2023-03-06T21:01:46.146Z,19.40
2023-03-06T21:04:15.430Z,14.50
2023-03-06T21:06:47.197Z,18.80
2023-03-06T21:09:17.177Z,20.80
2023-03-06T21:11:46.330Z,22.10
2023-03-06T21:14:15.646Z,21.00
2023-03-06T21:16:44.609Z,18.80
2023-03-06T21:19:13.082Z,16.20
2023-03-06T21:21:41.557Z,15.50
2023-03-06T21:24:10.131Z,9.00
2023-03-06T21:26:38.637Z,17.50
2023-03-06T21:29:07.108Z,14.70
2023-03-06T21:31:36.215Z,17.20
2023-03-06T21:34:05.585Z,16.30
2023-03-06T21:36:34.538Z,22.20
2023-03-06T21:39:06.523Z,21.70
2023-03-06T21:41:35.610Z,18.20
2023-03-06T21:44:06.627Z,14.10
2023-03-06T21:46:35.139Z,18.90
2023-03-06T21:49:04.994Z,17.90
2023-03-06T21:51:34.191Z,14.40
2023-03-06T21:54:03.140Z,17.00
2023-03-06T21:56:33.772Z,18.40
2023-03-06T21:59:02.263Z,17.60
2023-03-06T22:01:31.493Z,14.20
2023-03-06T22:04:00.585Z,19.20
2023-03-06T22:06:31.338Z,21.50
2023-03-06T22:09:01.086Z,22.50
2023-03-06T22:11:31.688Z,22.30
2023-03-06T22:14:00.318Z,22.30
2023-03-06T22:16:28.940Z,17.30
2023-03-06T22:18:57.810Z,16.40
2023-03-06T22:21:26.711Z,14.70
2023-03-06T22:23:57.846Z,15.60
2023-03-06T22:26:30.008Z,19.10
2023-03-06T22:28:58.436Z,17.70
2023-03-06T22:31:29.119Z,16.10
2023-03-06T22:34:00.423Z,20.20
2023-03-06T22:36:31.025Z,20.00
2023-03-06T22:39:02.251Z,19.00
2023-03-06T22:41:31.606Z,17.20
2023-03-06T22:44:01.970Z,10.70
2023-03-06T22:46:31.760Z,10.70
2023-03-06T22:49:01.719Z,12.40
2023-03-06T22:51:30.235Z,13.90
2023-03-06T22:53:58.615Z,15.60
2023-03-06T22:56:27.033Z,16.10
2023-03-06T22:58:55.460Z,15.10
2023-03-06T23:01:27.306Z,14.10
2023-03-06T23:03:58.794Z,16.30
2023-03-06T23:06:30.320Z,11.70
2023-03-06T23:09:07.742Z,10.50
2023-03-06T23:11:55.076Z,9.60
2023-03-06T23:14:42.133Z,12.40
2023-03-06T23:17:29.449Z,13.40
2023-03-06T23:20:16.786Z,13.20
2023-03-06T23:23:03.687Z,10.60
2023-03-06T23:25:44.647Z,10.00
2023-03-06T23:28:13.125Z,9.50
2023-03-06T23:30:42.424Z,11.00
2023-03-06T23:33:10.851Z,9.90
2023-03-06T23:35:39.952Z,9.30
2023-03-06T23:38:08.441Z,10.60
2023-03-06T23:40:38.888Z,12.20
2023-03-06T23:43:07.299Z,13.70
2023-03-06T23:45:35.827Z,12.40
2023-03-06T23:54:24.392Z,12.50
2023-03-06T23:56:52.805Z,14.80
2023-03-06T23:59:21.555Z,11.90
